Time;durP1;ratioP1;P1;durP2;ratioP2;P2;SDS_P1;SDS_P2;PMS_P1;PMS_P2;Temp;Humidity;BMP_temperature;BMP_pressure;BME280_temperature;BME280_humidity;BME280_pressure;Samples;Min_cycle;Max_cycle;Signal;HPM_P1;HPM_P2
2021/11/22 00:01:17;;;;;;;18.03;10.90;;;;;;;;;;4952029;29;20427;-84
2021/11/22 00:03:43;;;;;;;20.67;11.30;;;;;;;;;;4950167;29;20411;-84
2021/11/22 00:06:09;;;;;;;17.50;10.50;;;;;;;;;;4952795;29;20497;-84
2021/11/22 00:08:35;;;;;;;21.67;10.70;;;;;;;;;;4967013;29;20502;-84
2021/11/22 00:11:01;;;;;;;23.93;12.30;;;;;;;;;;4966327;28;20790;-84
2021/11/22 00:13:28;;;;;;;19.10;10.60;;;;;;;;;;4966837;28;20592;-84
2021/11/22 00:15:54;;;;;;;21.43;11.27;;;;;;;;;;4966468;29;20844;-85
2021/11/22 00:18:20;;;;;;;22.77;10.73;;;;;;;;;;4962174;29;20451;-84
2021/11/22 00:20:46;;;;;;;20.20;10.40;;;;;;;;;;4956448;28;20420;-84
2021/11/22 00:23:13;;;;;;;18.03;10.53;;;;;;;;;;4951756;29;20412;-84
2021/11/22 00:25:39;;;;;;;24.20;11.07;;;;;;;;;;4951814;29;20459;-85
2021/11/22 00:28:05;;;;;;;20.70;10.97;;;;;;;;;;4957169;29;20462;-84
2021/11/22 00:30:31;;;;;;;25.13;10.50;;;;;;;;;;4955087;29;20519;-85
2021/11/22 00:32:58;;;;;;;21.50;12.17;;;;;;;;;;4969701;28;20434;-85
2021/11/22 00:35:32;;;;;;;21.43;10.10;;;;;;;;;;4970919;29;20765;-85
2021/11/22 00:37:58;;;;;;;21.50;10.10;;;;;;;;;;4965019;28;21048;-85
2021/11/22 00:40:24;;;;;;;23.63;12.33;;;;;;;;;;4969101;29;20776;-85
2021/11/22 00:42:50;;;;;;;19.90;10.97;;;;;;;;;;4970549;28;20402;-85
2021/11/22 00:45:16;;;;;;;21.30;10.30;;;;;;;;;;4971012;28;20486;-84
2021/11/22 00:47:43;;;;;;;18.90;10.23;;;;;;;;;;4969154;28;20506;-85
2021/11/22 00:50:09;;;;;;;19.63;11.13;;;;;;;;;;4967911;29;20902;-85
2021/11/22 00:52:36;;;;;;;20.43;10.97;;;;;;;;;;4970335;28;20777;-85
2021/11/22 00:55:02;;;;;;;19.40;11.10;;;;;;;;;;4970764;28;20411;-84
2021/11/22 00:57:28;;;;;;;18.30;9.10;;;;;;;;;;4968668;28;20419;-85
2021/11/22 00:59:54;;;;;;;17.73;10.30;;;;;;;;;;4968595;29;20414;-85
2021/11/22 01:02:22;;;;;;;18.97;10.60;;;;;;;;;;4969979;29;20728;-85
2021/11/22 01:04:48;;;;;;;18.77;10.47;;;;;;;;;;4969744;29;20488;-85
2021/11/22 01:07:14;;;;;;;17.73;11.23;;;;;;;;;;4963570;29;20431;-85
2021/11/22 01:09:40;;;;;;;19.37;10.10;;;;;;;;;;4965385;29;20459;-85
2021/11/22 01:12:06;;;;;;;19.60;9.90;;;;;;;;;;4970194;29;20426;-85
2021/11/22 01:14:34;;;;;;;16.53;10.43;;;;;;;;;;4970237;29;20421;-85
2021/11/22 01:17:00;;;;;;;21.00;12.67;;;;;;;;;;4967798;29;20433;-85
2021/11/22 01:19:27;;;;;;;14.93;9.70;;;;;;;;;;4952813;29;20447;-85
2021/11/22 01:21:53;;;;;;;15.50;10.20;;;;;;;;;;4951176;29;20411;-85
2021/11/22 01:24:19;;;;;;;18.77;11.10;;;;;;;;;;4950965;29;20957;-85
2021/11/22 01:26:45;;;;;;;15.53;8.80;;;;;;;;;;4950895;29;20466;-85
2021/11/22 01:29:11;;;;;;;20.93;10.73;;;;;;;;;;4964955;28;20449;-85
2021/11/22 01:31:37;;;;;;;15.43;9.87;;;;;;;;;;4964705;28;20419;-85
2021/11/22 01:34:04;;;;;;;17.40;9.53;;;;;;;;;;4970005;28;20425;-85
2021/11/22 01:36:31;;;;;;;16.03;9.60;;;;;;;;;;4969810;28;20413;-85
2021/11/22 01:38:57;;;;;;;17.53;9.60;;;;;;;;;;4957884;28;20458;-85
2021/11/22 01:41:24;;;;;;;15.87;8.93;;;;;;;;;;4966080;28;20489;-85
2021/11/22 01:43:50;;;;;;;19.47;9.80;;;;;;;;;;4975680;28;20477;-85
2021/11/22 01:46:20;;;;;;;16.80;10.37;;;;;;;;;;4953141;29;20442;-84
2021/11/22 01:48:47;;;;;;;16.20;10.03;;;;;;;;;;4942900;29;20447;-84
2021/11/22 01:51:13;;;;;;;14.20;8.67;;;;;;;;;;4939512;29;20407;-84
2021/11/22 01:53:39;;;;;;;12.67;7.87;;;;;;;;;;4939805;29;20426;-84
2021/11/22 01:56:05;;;;;;;16.67;9.00;;;;;;;;;;4940517;29;20442;-84
2021/11/22 01:58:32;;;;;;;16.67;10.40;;;;;;;;;;4951769;29;20455;-84
2021/11/22 02:00:58;;;;;;;18.03;9.83;;;;;;;;;;4961196;29;20483;-84
2021/11/22 02:03:24;;;;;;;17.53;9.93;;;;;;;;;;4960345;29;20418;-84
2021/11/22 02:05:54;;;;;;;16.43;9.80;;;;;;;;;;4962408;29;20560;-85
2021/11/22 02:08:21;;;;;;;18.87;10.00;;;;;;;;;;4953363;29;20438;-84
2021/11/22 02:10:48;;;;;;;14.70;10.07;;;;;;;;;;4963033;29;20445;-84
2021/11/22 02:13:14;;;;;;;18.30;10.20;;;;;;;;;;4965642;29;20411;-84
2021/11/22 02:15:41;;;;;;;15.83;10.70;;;;;;;;;;4967313;29;20418;-85
2021/11/22 02:18:07;;;;;;;19.40;11.00;;;;;;;;;;4961481;29;20465;-84
2021/11/22 02:20:33;;;;;;;14.43;10.20;;;;;;;;;;4972495;28;20418;-84
2021/11/22 02:23:01;;;;;;;15.57;9.23;;;;;;;;;;4972824;28;20406;-85
2021/11/22 02:25:28;;;;;;;12.13;8.60;;;;;;;;;;4973103;28;20468;-85
2021/11/22 02:27:55;;;;;;;11.50;7.70;;;;;;;;;;4969222;28;20545;-85
2021/11/22 02:30:24;;;;;;;14.00;9.40;;;;;;;;;;4969000;28;20453;-85
2021/11/22 02:32:50;;;;;;;12.70;8.07;;;;;;;;;;4953956;29;20415;-85
2021/11/22 02:35:18;;;;;;;12.10;7.87;;;;;;;;;;4953891;29;20411;-85
2021/11/22 02:37:45;;;;;;;13.43;8.50;;;;;;;;;;4955683;29;20454;-85
2021/11/22 02:40:11;;;;;;;11.43;7.70;;;;;;;;;;4971859;29;20509;-85
2021/11/22 02:42:41;;;;;;;11.60;7.60;;;;;;;;;;4972802;29;20436;-85
2021/11/22 02:45:08;;;;;;;12.27;7.33;;;;;;;;;;4972265;29;20462;-85
2021/11/22 02:47:34;;;;;;;8.17;6.07;;;;;;;;;;4959464;29;20426;-85
2021/11/22 02:50:00;;;;;;;10.47;7.30;;;;;;;;;;4969207;29;20415;-84
2021/11/22 02:52:26;;;;;;;13.77;8.97;;;;;;;;;;4972498;29;20438;-85
2021/11/22 02:54:52;;;;;;;13.47;8.03;;;;;;;;;;4971799;29;20415;-85
2021/11/22 02:57:18;;;;;;;11.73;7.70;;;;;;;;;;4966123;29;20516;-85
2021/11/22 02:59:44;;;;;;;12.40;8.07;;;;;;;;;;4957408;28;20456;-85
2021/11/22 03:02:12;;;;;;;13.80;8.70;;;;;;;;;;4969420;28;20413;-83
2021/11/22 03:04:39;;;;;;;14.10;8.63;;;;;;;;;;4970990;28;20914;-85
2021/11/22 03:07:06;;;;;;;12.60;8.70;;;;;;;;;;4966453;29;20431;-85
2021/11/22 03:09:32;;;;;;;14.20;9.50;;;;;;;;;;4952582;29;20443;-85
2021/11/22 03:11:59;;;;;;;17.20;10.83;;;;;;;;;;4950405;29;20408;-85
2021/11/22 03:14:26;;;;;;;14.60;9.40;;;;;;;;;;4949290;29;20532;-85
2021/11/22 03:16:53;;;;;;;14.83;9.63;;;;;;;;;;4946126;29;20879;-85
2021/11/22 03:19:19;;;;;;;14.93;9.87;;;;;;;;;;4964824;29;20458;-85
2021/11/22 03:21:45;;;;;;;14.73;9.27;;;;;;;;;;4968109;28;20421;-84
2021/11/22 03:24:12;;;;;;;18.00;11.13;;;;;;;;;;4971328;28;20908;-83
2021/11/22 03:26:38;;;;;;;17.13;10.20;;;;;;;;;;4970771;29;20466;-83
2021/11/22 03:29:04;;;;;;;19.00;10.37;;;;;;;;;;4970512;28;20450;-83
2021/11/22 03:31:32;;;;;;;17.00;10.97;;;;;;;;;;4972556;28;20430;-83
2021/11/22 03:33:59;;;;;;;16.03;9.40;;;;;;;;;;4959831;28;20444;-83
2021/11/22 03:36:25;;;;;;;16.50;10.73;;;;;;;;;;4951874;29;20423;-83
2021/11/22 03:38:51;;;;;;;16.63;11.17;;;;;;;;;;4952845;29;20543;-83
2021/11/22 03:41:18;;;;;;;15.00;9.00;;;;;;;;;;4952620;29;20411;-83
2021/11/22 03:43:57;;;;;;;14.73;10.10;;;;;;;;;;4958232;29;20414;-83
2021/11/22 03:46:23;;;;;;;16.10;10.70;;;;;;;;;;4970227;29;20542;-83
2021/11/22 03:48:50;;;;;;;20.73;11.10;;;;;;;;;;4965549;28;20431;-83
2021/11/22 03:51:17;;;;;;;17.67;9.47;;;;;;;;;;4951546;29;20419;-84
2021/11/22 03:53:44;;;;;;;16.20;9.70;;;;;;;;;;4955621;29;20419;-83
2021/11/22 03:56:10;;;;;;;17.03;10.57;;;;;;;;;;4970192;29;20441;-83
2021/11/22 03:58:37;;;;;;;16.23;10.63;;;;;;;;;;4969382;28;20819;-84
2021/11/22 04:01:03;;;;;;;20.80;11.00;;;;;;;;;;4966393;29;20419;-84
2021/11/22 04:03:29;;;;;;;23.20;11.90;;;;;;;;;;4952774;28;20447;-83
2021/11/22 04:05:55;;;;;;;17.80;11.27;;;;;;;;;;4962420;28;20529;-84
2021/11/22 04:08:22;;;;;;;21.20;11.80;;;;;;;;;;4971880;28;20430;-83
2021/11/22 04:10:48;;;;;;;21.77;12.17;;;;;;;;;;4955080;28;20427;-83
2021/11/22 04:13:14;;;;;;;17.87;10.63;;;;;;;;;;4952672;29;20438;-83
2021/11/22 04:15:40;;;;;;;17.67;11.63;;;;;;;;;;4962936;29;20422;-83
2021/11/22 04:18:06;;;;;;;17.70;10.80;;;;;;;;;;4971135;28;20434;-84
2021/11/22 04:20:33;;;;;;;19.53;12.70;;;;;;;;;;4959763;29;20438;-83
2021/11/22 04:22:59;;;;;;;15.83;9.83;;;;;;;;;;4951309;29;20438;-84
2021/11/22 04:25:25;;;;;;;16.03;11.37;;;;;;;;;;4952846;29;20466;-83
2021/11/22 04:27:51;;;;;;;22.47;13.40;;;;;;;;;;4956074;28;20434;-84
2021/11/22 04:30:18;;;;;;;18.03;10.63;;;;;;;;;;4965731;28;20439;-85
2021/11/22 04:32:44;;;;;;;14.80;9.40;;;;;;;;;;4952001;29;20443;-84
2021/11/22 04:35:12;;;;;;;16.30;10.50;;;;;;;;;;4954353;28;20431;-84
2021/11/22 04:37:39;;;;;;;16.90;11.33;;;;;;;;;;4971734;28;20418;-84
2021/11/22 04:40:06;;;;;;;15.30;9.43;;;;;;;;;;4972482;28;20406;-84
2021/11/22 04:42:32;;;;;;;13.70;8.60;;;;;;;;;;4973084;28;20410;-84
2021/11/22 04:44:58;;;;;;;14.03;9.20;;;;;;;;;;4965465;28;20473;-84
2021/11/22 04:47:24;;;;;;;16.30;9.80;;;;;;;;;;4952086;29;20403;-84
2021/11/22 04:49:51;;;;;;;13.90;9.60;;;;;;;;;;4951407;29;20414;-84
2021/11/22 04:52:17;;;;;;;17.17;11.07;;;;;;;;;;4968051;29;20444;-84
2021/11/22 04:54:44;;;;;;;16.90;9.03;;;;;;;;;;4967796;29;20431;-84
2021/11/22 04:57:10;;;;;;;21.53;12.63;;;;;;;;;;4951873;29;20403;-84
2021/11/22 04:59:37;;;;;;;19.30;13.70;;;;;;;;;;4951937;29;20415;-84
2021/11/22 05:02:04;;;;;;;19.63;12.87;;;;;;;;;;4963643;29;20427;-83
2021/11/22 05:04:30;;;;;;;22.60;13.40;;;;;;;;;;4963810;28;20502;-84
2021/11/22 05:06:56;;;;;;;35.13;15.47;;;;;;;;;;4952435;29;20523;-84
2021/11/22 05:09:22;;;;;;;23.10;14.30;;;;;;;;;;4951560;29;20434;-84
2021/11/22 05:11:49;;;;;;;24.30;13.33;;;;;;;;;;4957600;29;20418;-84
2021/11/22 05:14:15;;;;;;;23.27;14.47;;;;;;;;;;4968944;29;20454;-85
2021/11/22 05:16:42;;;;;;;25.80;14.30;;;;;;;;;;4956410;28;20439;-83
2021/11/22 05:19:08;;;;;;;22.57;15.17;;;;;;;;;;4950853;29;20443;-84
2021/11/22 05:21:34;;;;;;;24.20;13.53;;;;;;;;;;4956739;29;20506;-84
2021/11/22 05:24:01;;;;;;;21.23;12.60;;;;;;;;;;4963664;28;20419;-84
2021/11/22 05:26:29;;;;;;;25.97;14.57;;;;;;;;;;4958712;29;20465;-84
2021/11/22 05:29:09;;;;;;;25.83;15.20;;;;;;;;;;4970955;28;20426;-84
2021/11/22 05:31:36;;;;;;;20.70;12.33;;;;;;;;;;4967254;29;20785;-85
2021/11/22 05:34:02;;;;;;;22.37;13.60;;;;;;;;;;4952090;28;20431;-85
2021/11/22 05:36:29;;;;;;;22.50;13.57;;;;;;;;;;4956518;29;20434;-84
2021/11/22 05:38:55;;;;;;;21.90;14.00;;;;;;;;;;4971234;28;20859;-84
2021/11/22 05:41:21;;;;;;;20.13;12.57;;;;;;;;;;4971396;29;20470;-84
2021/11/22 05:43:47;;;;;;;22.37;12.87;;;;;;;;;;4956365;29;20465;-84
2021/11/22 05:46:14;;;;;;;20.93;12.80;;;;;;;;;;4958842;29;20487;-84
2021/11/22 05:48:40;;;;;;;20.80;13.40;;;;;;;;;;4964974;28;20499;-83
2021/11/22 05:51:11;;;;;;;22.20;14.30;;;;;;;;;;4951563;29;20761;-83
2021/11/22 05:53:37;;;;;;;17.80;12.33;;;;;;;;;;4961222;29;20450;-83
2021/11/22 05:56:04;;;;;;;19.23;12.60;;;;;;;;;;4970255;28;20403;-84
2021/11/22 05:58:31;;;;;;;19.20;11.97;;;;;;;;;;4962411;28;20466;-84
2021/11/22 06:01:01;;;;;;;20.90;12.50;;;;;;;;;;4951973;29;20525;-83
2021/11/22 06:03:28;;;;;;;20.30;12.63;;;;;;;;;;4958232;29;20426;-84
2021/11/22 06:05:54;;;;;;;23.40;13.40;;;;;;;;;;4970948;28;20442;-84
2021/11/22 06:08:20;;;;;;;21.70;13.77;;;;;;;;;;4969266;28;20439;-84
2021/11/22 06:10:48;;;;;;;20.50;11.97;;;;;;;;;;4971556;29;20470;-84
2021/11/22 06:13:15;;;;;;;17.77;10.23;;;;;;;;;;4968405;29;20490;-85
2021/11/22 06:15:41;;;;;;;17.03;10.60;;;;;;;;;;4950202;29;20419;-84
2021/11/22 06:18:07;;;;;;;19.33;10.63;;;;;;;;;;4953799;29;20522;-84
2021/11/22 06:20:33;;;;;;;18.40;10.37;;;;;;;;;;4952418;29;20404;-83
2021/11/22 06:23:00;;;;;;;19.07;11.00;;;;;;;;;;4953424;29;20501;-84
2021/11/22 06:25:26;;;;;;;15.43;10.93;;;;;;;;;;4968238;29;20461;-84
2021/11/22 06:27:52;;;;;;;16.63;10.93;;;;;;;;;;4965649;28;20448;-84
2021/11/22 06:30:19;;;;;;;14.70;9.80;;;;;;;;;;4963223;29;20445;-84
2021/11/22 06:32:45;;;;;;;15.80;9.63;;;;;;;;;;4965647;29;20435;-84
2021/11/22 06:35:11;;;;;;;14.60;9.57;;;;;;;;;;4966974;29;20418;-83
2021/11/22 06:37:37;;;;;;;17.10;10.17;;;;;;;;;;4977996;28;20462;-84
2021/11/22 06:40:08;;;;;;;15.87;9.87;;;;;;;;;;4975935;28;20479;-83
2021/11/22 06:42:34;;;;;;;16.43;9.70;;;;;;;;;;4965965;29;20448;-83
2021/11/22 06:45:00;;;;;;;13.80;9.27;;;;;;;;;;4963512;29;20486;-84
2021/11/22 06:47:26;;;;;;;13.47;9.67;;;;;;;;;;4960930;28;20422;-84
2021/11/22 06:49:53;;;;;;;19.93;10.27;;;;;;;;;;4960280;28;20457;-84
2021/11/22 06:52:21;;;;;;;16.97;10.63;;;;;;;;;;4960713;28;20435;-84
2021/11/22 06:54:47;;;;;;;19.33;11.50;;;;;;;;;;4961850;28;20490;-84
2021/11/22 06:57:14;;;;;;;16.37;9.77;;;;;;;;;;4978028;28;20494;-85
2021/11/22 06:59:41;;;;;;;17.13;9.67;;;;;;;;;;4979234;28;20462;-84
2021/11/22 07:02:12;;;;;;;19.90;10.87;;;;;;;;;;4969839;28;20428;-84
2021/11/22 07:04:38;;;;;;;16.90;8.93;;;;;;;;;;4957033;29;20403;-83
2021/11/22 07:07:04;;;;;;;16.53;10.10;;;;;;;;;;4974077;29;20434;-84
2021/11/22 07:09:31;;;;;;;16.57;10.63;;;;;;;;;;4974698;28;20446;-84
2021/11/22 07:11:57;;;;;;;16.93;10.50;;;;;;;;;;4974813;29;20509;-84
2021/11/22 07:14:23;;;;;;;16.53;10.57;;;;;;;;;;4975828;29;20457;-84
2021/11/22 07:16:51;;;;;;;15.67;9.43;;;;;;;;;;4962838;28;20426;-84
2021/11/22 07:19:17;;;;;;;14.80;9.47;;;;;;;;;;4959393;28;20440;-84
2021/11/22 07:21:43;;;;;;;16.80;11.63;;;;;;;;;;4960024;28;20514;-84
2021/11/22 07:24:10;;;;;;;16.87;11.00;;;;;;;;;;4959214;28;20462;-85
2021/11/22 07:26:36;;;;;;;15.90;10.00;;;;;;;;;;4968579;28;20509;-85
2021/11/22 07:29:03;;;;;;;15.70;9.53;;;;;;;;;;4969313;29;20454;-85
2021/11/22 07:31:29;;;;;;;21.40;12.50;;;;;;;;;;4974861;28;20422;-85
2021/11/22 07:33:55;;;;;;;22.33;13.00;;;;;;;;;;4969856;28;20427;-86
2021/11/22 07:36:21;;;;;;;21.70;12.90;;;;;;;;;;4967437;29;20430;-84
2021/11/22 07:38:47;;;;;;;40.33;19.80;;;;;;;;;;4967991;28;20454;-86
2021/11/22 07:41:13;;;;;;;21.03;13.90;;;;;;;;;;4973760;28;20501;-86
2021/11/22 07:43:40;;;;;;;18.90;11.13;;;;;;;;;;4962183;28;20412;-86
2021/11/22 07:46:06;;;;;;;18.80;11.77;;;;;;;;;;4968719;28;20489;-86
2021/11/22 07:48:32;;;;;;;16.37;10.90;;;;;;;;;;4975948;28;20425;-84
2021/11/22 07:50:58;;;;;;;15.17;10.60;;;;;;;;;;4974025;28;20415;-85
2021/11/22 07:53:24;;;;;;;17.80;10.13;;;;;;;;;;4965547;28;20508;-85
2021/11/22 07:55:51;;;;;;;18.27;10.20;;;;;;;;;;4972804;28;20441;-83
2021/11/22 07:58:17;;;;;;;18.37;10.57;;;;;;;;;;4966490;28;20451;-85
2021/11/22 08:00:43;;;;;;;15.23;9.20;;;;;;;;;;4972565;29;20414;-84
2021/11/22 08:03:09;;;;;;;19.90;10.17;;;;;;;;;;4969888;28;20469;-84
2021/11/22 08:05:35;;;;;;;17.03;10.53;;;;;;;;;;4972916;28;20470;-87
2021/11/22 08:08:02;;;;;;;21.27;11.43;;;;;;;;;;4968714;28;20434;-84
2021/11/22 08:10:29;;;;;;;15.37;10.97;;;;;;;;;;4970493;28;20410;-87
2021/11/22 08:13:00;;;;;;;33.77;19.33;;;;;;;;;;4969642;28;20424;-85
2021/11/22 08:15:31;;;;;;;19.57;12.70;;;;;;;;;;4971611;28;20453;-84
2021/11/22 08:17:58;;;;;;;16.10;10.50;;;;;;;;;;4972417;28;20454;-85
2021/11/22 08:20:24;;;;;;;15.30;9.97;;;;;;;;;;4975029;28;20427;-86
2021/11/22 08:22:51;;;;;;;19.03;11.00;;;;;;;;;;4966931;28;20435;-86
2021/11/22 08:25:18;;;;;;;20.10;11.53;;;;;;;;;;4966745;28;20465;-88
2021/11/22 08:27:44;;;;;;;19.03;11.80;;;;;;;;;;4967007;28;20442;-84
2021/11/22 08:30:13;;;;;;;22.30;12.67;;;;;;;;;;4962977;28;20505;-86
2021/11/22 08:32:39;;;;;;;15.30;10.33;;;;;;;;;;4970278;28;20479;-87
2021/11/22 08:35:08;;;;;;;21.00;12.13;;;;;;;;;;4968197;28;20423;-87
2021/11/22 08:37:35;;;;;;;19.47;11.83;;;;;;;;;;4972722;28;20418;-86
2021/11/22 08:40:01;;;;;;;16.90;11.00;;;;;;;;;;4963266;28;20433;-86
2021/11/22 08:42:27;;;;;;;17.53;10.87;;;;;;;;;;4967166;28;20430;-85
2021/11/22 08:44:53;;;;;;;18.77;12.80;;;;;;;;;;4955698;28;20506;-86
2021/11/22 08:47:20;;;;;;;21.03;12.67;;;;;;;;;;4963015;28;20414;-85
2021/11/22 08:49:46;;;;;;;20.13;11.07;;;;;;;;;;4964661;28;20538;-87
2021/11/22 08:52:12;;;;;;;18.47;11.60;;;;;;;;;;4967485;28;20431;-86
2021/11/22 08:54:39;;;;;;;20.50;12.03;;;;;;;;;;4971725;28;20439;-87
2021/11/22 08:57:09;;;;;;;20.73;11.97;;;;;;;;;;4963080;28;20461;-86
2021/11/22 08:59:36;;;;;;;19.60;11.70;;;;;;;;;;4959212;28;20449;-88
2021/11/22 09:02:02;;;;;;;22.80;13.07;;;;;;;;;;4962924;28;20432;-85
2021/11/22 09:04:29;;;;;;;21.87;14.00;;;;;;;;;;4978444;28;20829;-84
2021/11/22 09:06:56;;;;;;;21.60;12.90;;;;;;;;;;4970585;28;20528;-87
2021/11/22 09:09:22;;;;;;;26.23;14.87;;;;;;;;;;4961992;28;20428;-87
2021/11/22 09:11:48;;;;;;;22.13;12.83;;;;;;;;;;4959259;28;20493;-87
2021/11/22 09:14:14;;;;;;;24.80;14.07;;;;;;;;;;4966995;28;20426;-86
2021/11/22 09:16:41;;;;;;;18.80;12.47;;;;;;;;;;4959103;28;20401;-86
2021/11/22 09:19:10;;;;;;;18.00;11.20;;;;;;;;;;4956413;28;20829;-85
2021/11/22 09:21:36;;;;;;;15.57;9.90;;;;;;;;;;4956433;29;20829;-84
2021/11/22 09:24:04;;;;;;;17.57;10.73;;;;;;;;;;4954397;29;20450;-84
2021/11/22 09:26:31;;;;;;;17.60;11.53;;;;;;;;;;4956674;29;20443;-87
2021/11/22 09:28:57;;;;;;;16.63;10.10;;;;;;;;;;4952313;29;20457;-86
2021/11/22 09:31:23;;;;;;;18.17;11.90;;;;;;;;;;4954616;29;20433;-84
2021/11/22 09:33:52;;;;;;;18.50;10.97;;;;;;;;;;4962689;28;20433;-87
2021/11/22 09:36:18;;;;;;;15.37;10.30;;;;;;;;;;4958705;29;20506;-86
2021/11/22 09:38:44;;;;;;;15.97;10.27;;;;;;;;;;4958522;28;20477;-85
2021/11/22 09:41:11;;;;;;;19.70;10.73;;;;;;;;;;4951050;29;20420;-89
2021/11/22 09:43:38;;;;;;;17.87;10.30;;;;;;;;;;4955932;28;20540;-87
2021/11/22 09:46:04;;;;;;;17.30;9.90;;;;;;;;;;4958600;29;20455;-87
2021/11/22 09:48:30;;;;;;;38.97;23.70;;;;;;;;;;4954147;29;20513;-85
2021/11/22 09:50:56;;;;;;;14.73;9.47;;;;;;;;;;4956943;29;20803;-87
2021/11/22 09:53:23;;;;;;;15.30;9.97;;;;;;;;;;4950730;29;20443;-86
2021/11/22 09:55:49;;;;;;;15.00;10.40;;;;;;;;;;4958568;29;20468;-86
2021/11/22 09:58:15;;;;;;;17.20;10.60;;;;;;;;;;4957294;28;20451;-87
2021/11/22 10:00:46;;;;;;;18.07;10.37;;;;;;;;;;4961123;28;20436;-85
2021/11/22 10:03:20;;;;;;;28.43;16.93;;;;;;;;;;4956422;29;20423;-86
2021/11/22 10:05:46;;;;;;;17.17;11.03;;;;;;;;;;4952814;29;20514;-85
2021/11/22 10:08:20;;;;;;;23.40;10.17;;;;;;;;;;4955156;29;20490;-85
2021/11/22 10:10:54;;;;;;;23.37;12.37;;;;;;;;;;4954547;28;20422;-85
2021/11/22 10:13:29;;;;;;;19.30;11.80;;;;;;;;;;4945336;29;20503;-84
2021/11/22 10:15:58;;;;;;;18.17;11.60;;;;;;;;;;4963939;28;20422;-85
2021/11/22 10:18:34;;;;;;;18.97;11.87;;;;;;;;;;4960268;28;20507;-84
2021/11/22 10:21:07;;;;;;;22.73;11.10;;;;;;;;;;4954981;29;20427;-87
2021/11/22 10:23:34;;;;;;;21.93;10.80;;;;;;;;;;4956028;28;20438;-84
2021/11/22 10:26:00;;;;;;;15.10;9.93;;;;;;;;;;4972995;28;21775;-86
2021/11/22 10:28:30;;;;;;;16.73;9.47;;;;;;;;;;4948427;29;20443;-84
2021/11/22 10:30:57;;;;;;;16.17;10.07;;;;;;;;;;4954726;28;20430;-83
2021/11/22 10:33:27;;;;;;;15.50;9.50;;;;;;;;;;4954638;29;20417;-83
2021/11/22 10:35:56;;;;;;;16.33;9.67;;;;;;;;;;4960891;29;20414;-85
2021/11/22 10:38:23;;;;;;;19.83;10.93;;;;;;;;;;4959748;28;20446;-85
2021/11/22 10:40:51;;;;;;;17.27;10.20;;;;;;;;;;4952021;29;20926;-85
2021/11/22 10:43:17;;;;;;;16.77;10.47;;;;;;;;;;4950937;29;20423;-84
2021/11/22 10:45:50;;;;;;;14.73;9.80;;;;;;;;;;4956328;28;20496;-85
2021/11/22 10:48:19;;;;;;;21.23;12.43;;;;;;;;;;4954222;28;20442;-85
2021/11/22 10:50:50;;;;;;;21.67;12.43;;;;;;;;;;4959609;29;20422;-84
2021/11/22 10:53:27;;;;;;;20.87;12.33;;;;;;;;;;4960750;28;20425;-85
2021/11/22 10:55:53;;;;;;;19.03;12.00;;;;;;;;;;4956514;28;20426;-83
2021/11/22 10:58:33;;;;;;;20.63;11.50;;;;;;;;;;4951128;28;20443;-85
2021/11/22 11:00:59;;;;;;;20.60;12.37;;;;;;;;;;4964980;29;20425;-85
2021/11/22 11:03:28;;;;;;;20.97;11.10;;;;;;;;;;4960511;28;20419;-85
2021/11/22 11:05:58;;;;;;;24.77;11.10;;;;;;;;;;4966821;28;20907;-84
2021/11/22 11:08:28;;;;;;;23.77;13.70;;;;;;;;;;4960106;28;20470;-86
2021/11/22 11:11:08;;;;;;;24.47;14.00;;;;;;;;;;4954463;29;20408;-86
2021/11/22 11:13:44;;;;;;;19.57;11.03;;;;;;;;;;4957120;29;20431;-86
2021/11/22 11:16:11;;;;;;;23.57;14.47;;;;;;;;;;4958512;29;20437;-86
2021/11/22 11:18:37;;;;;;;26.97;14.67;;;;;;;;;;4959604;28;20439;-86
2021/11/22 11:21:03;;;;;;;24.07;13.50;;;;;;;;;;4952293;29;20419;-86
2021/11/22 11:23:29;;;;;;;18.30;11.07;;;;;;;;;;4946527;29;20947;-85
2021/11/22 11:25:56;;;;;;;19.80;11.07;;;;;;;;;;4948156;28;20470;-83
2021/11/22 11:28:23;;;;;;;23.20;13.57;;;;;;;;;;4957478;28;20454;-81
2021/11/22 11:30:49;;;;;;;20.83;12.30;;;;;;;;;;4951800;28;20920;-82
2021/11/22 11:33:15;;;;;;;22.47;12.20;;;;;;;;;;4949822;29;20431;-83
2021/11/22 11:35:46;;;;;;;20.20;12.70;;;;;;;;;;4946359;29;20511;-83
2021/11/22 11:38:31;;;;;;;18.73;11.13;;;;;;;;;;4961138;29;21017;-82
2021/11/22 11:41:14;;;;;;;19.93;10.70;;;;;;;;;;4953271;29;20438;-83
2021/11/22 11:43:58;;;;;;;22.80;13.13;;;;;;;;;;4944303;29;20430;-85
2021/11/22 11:46:43;;;;;;;16.43;11.10;;;;;;;;;;4949478;29;20546;-85
2021/11/22 11:49:12;;;;;;;21.77;13.03;;;;;;;;;;4953322;28;20533;-84
2021/11/22 11:51:42;;;;;;;21.40;11.17;;;;;;;;;;4949545;29;20411;-84
2021/11/22 11:54:10;;;;;;;20.73;11.37;;;;;;;;;;4954377;29;20923;-85
2021/11/22 11:56:38;;;;;;;18.27;10.43;;;;;;;;;;4950519;29;20451;-85
2021/11/22 11:59:14;;;;;;;25.37;13.63;;;;;;;;;;4956601;28;20438;-85
2021/11/22 12:01:57;;;;;;;22.80;11.83;;;;;;;;;;4960288;28;20418;-85
2021/11/22 12:04:23;;;;;;;21.53;11.87;;;;;;;;;;4968739;28;20438;-84
2021/11/22 12:06:51;;;;;;;18.17;10.73;;;;;;;;;;4953359;29;20458;-85
2021/11/22 12:09:40;;;;;;;16.90;10.90;;;;;;;;;;4962077;28;20436;-84
2021/11/22 12:12:09;;;;;;;17.83;11.50;;;;;;;;;;4967804;28;20436;-84
2021/11/22 12:14:54;;;;;;;19.17;11.27;;;;;;;;;;4960932;29;20431;-87
2021/11/22 12:17:32;;;;;;;17.90;9.93;;;;;;;;;;4958381;29;20419;-85
2021/11/22 12:20:04;;;;;;;18.47;10.93;;;;;;;;;;4979003;28;20446;-84
2021/11/22 12:22:35;;;;;;;18.00;10.63;;;;;;;;;;4975133;28;20435;-86
2021/11/22 12:25:10;;;;;;;17.00;11.43;;;;;;;;;;4949412;29;20423;-84
2021/11/22 12:27:37;;;;;;;20.13;11.90;;;;;;;;;;4960236;28;20402;-86
2021/11/22 12:30:21;;;;;;;18.40;11.77;;;;;;;;;;4955650;29;20540;-84
2021/11/22 12:32:48;;;;;;;19.50;11.07;;;;;;;;;;4953861;28;20414;-83
2021/11/22 12:35:14;;;;;;;18.33;10.50;;;;;;;;;;4953853;28;20801;-84
2021/11/22 12:37:40;;;;;;;16.83;11.53;;;;;;;;;;4956321;28;20407;-83
2021/11/22 12:40:09;;;;;;;16.80;10.33;;;;;;;;;;4957434;28;20511;-82
2021/11/22 12:43:04;;;;;;;17.00;11.70;;;;;;;;;;4958649;28;20424;-83
2021/11/22 12:45:31;;;;;;;20.43;11.53;;;;;;;;;;4949695;28;20505;-83
2021/11/22 12:47:57;;;;;;;23.40;13.60;;;;;;;;;;4957993;28;20442;-82
2021/11/22 12:50:24;;;;;;;15.37;10.50;;;;;;;;;;4956077;29;20426;-81
2021/11/22 12:53:22;;;;;;;17.00;10.83;;;;;;;;;;4953656;28;20925;-82
2021/11/22 12:55:48;;;;;;;21.20;11.33;;;;;;;;;;4962397;28;20429;-82
2021/11/22 12:58:16;;;;;;;20.43;11.57;;;;;;;;;;4958155;29;20453;-83
2021/11/22 13:00:45;;;;;;;15.57;10.00;;;;;;;;;;4953611;29;20493;-83
2021/11/22 13:03:19;;;;;;;13.10;9.20;;;;;;;;;;4948025;29;20982;-83
2021/11/22 13:05:56;;;;;;;17.50;10.63;;;;;;;;;;4945219;28;20493;-83
2021/11/22 13:08:23;;;;;;;15.20;10.10;;;;;;;;;;4954121;28;20434;-83
2021/11/22 13:10:51;;;;;;;15.73;9.70;;;;;;;;;;4960138;29;20510;-84
2021/11/22 13:16:03;;;;;;;15.80;10.20;;;;;;;;;;4955973;29;20548;-82
2021/11/22 13:18:31;;;;;;;15.30;10.90;;;;;;;;;;4951966;28;20446;-83
2021/11/22 13:21:02;;;;;;;14.63;9.00;;;;;;;;;;4956769;28;20455;-84
2021/11/22 13:23:30;;;;;;;16.13;10.37;;;;;;;;;;4952448;28;20432;-82
2021/11/22 13:25:57;;;;;;;15.57;9.90;;;;;;;;;;4955424;29;20462;-83
2021/11/22 13:28:26;;;;;;;13.87;9.63;;;;;;;;;;4957985;29;20455;-82
2021/11/22 13:30:52;;;;;;;14.13;9.00;;;;;;;;;;4956888;29;20506;-84
2021/11/22 13:33:18;;;;;;;17.00;10.17;;;;;;;;;;4959331;28;20433;-82
2021/11/22 13:35:57;;;;;;;15.83;10.07;;;;;;;;;;4951100;29;20763;-84
2021/11/22 13:38:23;;;;;;;15.13;10.60;;;;;;;;;;4961215;29;20449;-84
2021/11/22 13:40:57;;;;;;;16.80;9.80;;;;;;;;;;4951913;28;20491;-82
2021/11/22 13:43:27;;;;;;;14.63;9.27;;;;;;;;;;4952470;28;20423;-83
2021/11/22 13:46:02;;;;;;;15.93;10.90;;;;;;;;;;4955905;28;20466;-82
2021/11/22 13:48:46;;;;;;;16.43;11.43;;;;;;;;;;4954917;29;20446;-82
2021/11/22 13:51:19;;;;;;;14.63;9.60;;;;;;;;;;4968135;28;20438;-82
2021/11/22 13:54:02;;;;;;;16.37;10.93;;;;;;;;;;4969744;29;20547;-83
2021/11/22 13:56:28;;;;;;;13.23;9.00;;;;;;;;;;4957289;29;20419;-83
2021/11/22 13:58:55;;;;;;;15.10;9.87;;;;;;;;;;4966455;29;20477;-83
2021/11/22 14:01:22;;;;;;;15.20;10.33;;;;;;;;;;4964044;29;20438;-83
2021/11/22 14:03:51;;;;;;;16.73;11.67;;;;;;;;;;4956375;28;20450;-83
2021/11/22 14:06:19;;;;;;;15.20;9.53;;;;;;;;;;4966845;29;20457;-84
2021/11/22 14:08:46;;;;;;;16.77;10.43;;;;;;;;;;4954230;28;20481;-82
2021/11/22 14:11:22;;;;;;;17.77;10.23;;;;;;;;;;4958664;29;20514;-84
2021/11/22 14:13:48;;;;;;;13.10;9.63;;;;;;;;;;4962838;29;20437;-84
2021/11/22 14:16:17;;;;;;;14.73;10.30;;;;;;;;;;4966077;28;20431;-84
2021/11/22 14:18:44;;;;;;;14.07;9.23;;;;;;;;;;4960452;29;20451;-84
2021/11/22 14:21:10;;;;;;;14.07;10.50;;;;;;;;;;4959777;28;21024;-84
2021/11/22 14:23:37;;;;;;;15.60;11.47;;;;;;;;;;4965032;28;20430;-83
2021/11/22 14:26:21;;;;;;;15.33;9.33;;;;;;;;;;4963845;28;20473;-83
2021/11/22 14:28:47;;;;;;;19.77;10.67;;;;;;;;;;4956492;29;20449;-81